sensor_id;sensor_type;location;lat;lon;timestamp;P1;durP1;ratioP1;P2;durP2;ratioP2
74213;SDS011;62576;55.694;37.494;2022-09-12T00:01:21;12.68;;;6.63;;
74213;SDS011;62576;55.694;37.494;2022-09-12T00:03:52;13.82;;;6.57;;
74213;SDS011;62576;55.694;37.494;2022-09-12T00:06:24;14.50;;;7.07;;
74213;SDS011;62576;55.694;37.494;2022-09-12T00:08:56;13.38;;;6.47;;
74213;SDS011;62576;55.694;37.494;2022-09-12T00:11:27;14.93;;;6.32;;
74213;SDS011;62576;55.694;37.494;2022-09-12T00:13:58;15.80;;;7.00;;
74213;SDS011;62576;55.694;37.494;2022-09-12T00:16:32;11.68;;;6.38;;
74213;SDS011;62576;55.694;37.494;2022-09-12T00:19:04;12.45;;;6.53;;
74213;SDS011;62576;55.694;37.494;2022-09-12T00:21:35;13.93;;;6.28;;
74213;SDS011;62576;55.694;37.494;2022-09-12T00:24:07;12.68;;;6.20;;
74213;SDS011;62576;55.694;37.494;2022-09-12T00:26:37;13.02;;;6.88;;
74213;SDS011;62576;55.694;37.494;2022-09-12T00:29:08;11.07;;;6.50;;
74213;SDS011;62576;55.694;37.494;2022-09-12T00:31:45;11.50;;;5.95;;
74213;SDS011;62576;55.694;37.494;2022-09-12T00:34:15;10.68;;;5.72;;
74213;SDS011;62576;55.694;37.494;2022-09-12T00:36:45;9.40;;;5.75;;
74213;SDS011;62576;55.694;37.494;2022-09-12T00:39:15;10.63;;;6.15;;
74213;SDS011;62576;55.694;37.494;2022-09-12T00:41:46;13.15;;;5.72;;
74213;SDS011;62576;55.694;37.494;2022-09-12T00:47:25;10.88;;;5.38;;
74213;SDS011;62576;55.694;37.494;2022-09-12T00:49:58;11.75;;;5.53;;
74213;SDS011;62576;55.694;37.494;2022-09-12T00:52:34;12.02;;;5.30;;
74213;SDS011;62576;55.694;37.494;2022-09-12T00:55:09;9.10;;;4.97;;
74213;SDS011;62576;55.694;37.494;2022-09-12T00:57:44;10.35;;;5.38;;
74213;SDS011;62576;55.694;37.494;2022-09-12T01:00:19;9.40;;;4.80;;
74213;SDS011;62576;55.694;37.494;2022-09-12T01:02:52;11.30;;;4.75;;
74213;SDS011;62576;55.694;37.494;2022-09-12T01:05:25;8.82;;;4.90;;
74213;SDS011;62576;55.694;37.494;2022-09-12T01:07:56;10.27;;;4.65;;
74213;SDS011;62576;55.694;37.494;2022-09-12T01:10:28;7.88;;;4.47;;
74213;SDS011;62576;55.694;37.494;2022-09-12T01:12:59;9.85;;;4.47;;
74213;SDS011;62576;55.694;37.494;2022-09-12T01:15:29;10.63;;;4.78;;
74213;SDS011;62576;55.694;37.494;2022-09-12T01:18:08;9.23;;;4.47;;
74213;SDS011;62576;55.694;37.494;2022-09-12T01:21:01;9.48;;;4.30;;
74213;SDS011;62576;55.694;37.494;2022-09-12T01:26:54;10.98;;;4.47;;
74213;SDS011;62576;55.694;37.494;2022-09-12T01:32:57;11.88;;;5.07;;
74213;SDS011;62576;55.694;37.494;2022-09-12T01:35:44;8.15;;;4.65;;
74213;SDS011;62576;55.694;37.494;2022-09-12T01:38:26;9.20;;;4.93;;
74213;SDS011;62576;55.694;37.494;2022-09-12T01:41:06;10.48;;;5.03;;
74213;SDS011;62576;55.694;37.494;2022-09-12T01:43:43;9.63;;;5.38;;
74213;SDS011;62576;55.694;37.494;2022-09-12T01:46:18;10.75;;;5.10;;
74213;SDS011;62576;55.694;37.494;2022-09-12T01:48:53;10.32;;;5.35;;
74213;SDS011;62576;55.694;37.494;2022-09-12T01:51:30;9.52;;;5.50;;
74213;SDS011;62576;55.694;37.494;2022-09-12T01:54:03;12.20;;;5.57;;
74213;SDS011;62576;55.694;37.494;2022-09-12T01:56:39;10.48;;;5.35;;
74213;SDS011;62576;55.694;37.494;2022-09-12T01:59:13;10.25;;;5.57;;
74213;SDS011;62576;55.694;37.494;2022-09-12T02:01:46;10.40;;;5.90;;
74213;SDS011;62576;55.694;37.494;2022-09-12T02:04:23;12.80;;;6.22;;
74213;SDS011;62576;55.694;37.494;2022-09-12T02:06:57;14.35;;;6.28;;
74213;SDS011;62576;55.694;37.494;2022-09-12T02:09:35;10.75;;;6.50;;
74213;SDS011;62576;55.694;37.494;2022-09-12T02:12:09;13.73;;;6.80;;
74213;SDS011;62576;55.694;37.494;2022-09-12T02:14:41;12.82;;;6.97;;
74213;SDS011;62576;55.694;37.494;2022-09-12T02:17:17;17.08;;;7.10;;
74213;SDS011;62576;55.694;37.494;2022-09-12T02:19:51;14.32;;;7.22;;
74213;SDS011;62576;55.694;37.494;2022-09-12T02:22:25;14.30;;;7.13;;
74213;SDS011;62576;55.694;37.494;2022-09-12T02:24:58;14.73;;;6.45;;
74213;SDS011;62576;55.694;37.494;2022-09-12T02:27:29;15.00;;;7.32;;
74213;SDS011;62576;55.694;37.494;2022-09-12T02:30:05;14.13;;;6.97;;
74213;SDS011;62576;55.694;37.494;2022-09-12T02:32:37;14.20;;;7.20;;
74213;SDS011;62576;55.694;37.494;2022-09-12T02:35:15;16.13;;;7.35;;
74213;SDS011;62576;55.694;37.494;2022-09-12T02:37:54;13.15;;;7.28;;
74213;SDS011;62576;55.694;37.494;2022-09-12T02:40:28;13.75;;;6.90;;
74213;SDS011;62576;55.694;37.494;2022-09-12T02:42:59;15.30;;;6.97;;
74213;SDS011;62576;55.694;37.494;2022-09-12T02:45:31;13.57;;;7.00;;
74213;SDS011;62576;55.694;37.494;2022-09-12T02:48:04;10.00;;;5.95;;
74213;SDS011;62576;55.694;37.494;2022-09-12T02:50:40;13.35;;;6.90;;
74213;SDS011;62576;55.694;37.494;2022-09-12T02:53:10;13.50;;;7.03;;
74213;SDS011;62576;55.694;37.494;2022-09-12T02:55:41;15.15;;;7.25;;
74213;SDS011;62576;55.694;37.494;2022-09-12T02:58:12;13.48;;;7.07;;
74213;SDS011;62576;55.694;37.494;2022-09-12T03:00:47;16.80;;;8.00;;
74213;SDS011;62576;55.694;37.494;2022-09-12T03:03:25;14.55;;;7.38;;
74213;SDS011;62576;55.694;37.494;2022-09-12T03:06:08;15.88;;;7.80;;
74213;SDS011;62576;55.694;37.494;2022-09-12T03:11:48;15.13;;;7.50;;
74213;SDS011;62576;55.694;37.494;2022-09-12T03:14:31;15.70;;;7.63;;
74213;SDS011;62576;55.694;37.494;2022-09-12T03:17:13;16.25;;;8.02;;
74213;SDS011;62576;55.694;37.494;2022-09-12T03:19:55;16.48;;;7.97;;
74213;SDS011;62576;55.694;37.494;2022-09-12T03:22:32;16.70;;;8.13;;
74213;SDS011;62576;55.694;37.494;2022-09-12T03:25:09;13.73;;;7.57;;
74213;SDS011;62576;55.694;37.494;2022-09-12T03:27:45;14.32;;;7.40;;
74213;SDS011;62576;55.694;37.494;2022-09-12T03:30:22;15.93;;;8.18;;
74213;SDS011;62576;55.694;37.494;2022-09-12T03:32:53;14.88;;;7.05;;
74213;SDS011;62576;55.694;37.494;2022-09-12T03:35:23;13.07;;;7.68;;
74213;SDS011;62576;55.694;37.494;2022-09-12T03:37:54;17.35;;;8.00;;
74213;SDS011;62576;55.694;37.494;2022-09-12T03:40:21;18.38;;;7.90;;
74213;SDS011;62576;55.694;37.494;2022-09-12T03:42:51;16.27;;;7.65;;
74213;SDS011;62576;55.694;37.494;2022-09-12T03:45:21;15.55;;;7.95;;
74213;SDS011;62576;55.694;37.494;2022-09-12T03:47:51;16.25;;;8.55;;
74213;SDS011;62576;55.694;37.494;2022-09-12T03:50:21;19.00;;;8.30;;
74213;SDS011;62576;55.694;37.494;2022-09-12T03:52:56;17.35;;;8.32;;
74213;SDS011;62576;55.694;37.494;2022-09-12T03:55:27;17.33;;;8.68;;
74213;SDS011;62576;55.694;37.494;2022-09-12T03:57:57;18.45;;;9.27;;
74213;SDS011;62576;55.694;37.494;2022-09-12T04:00:27;15.75;;;8.77;;
74213;SDS011;62576;55.694;37.494;2022-09-12T04:02:57;15.95;;;8.63;;
74213;SDS011;62576;55.694;37.494;2022-09-12T04:05:27;20.13;;;9.27;;
74213;SDS011;62576;55.694;37.494;2022-09-12T04:07:58;16.73;;;8.73;;
74213;SDS011;62576;55.694;37.494;2022-09-12T04:10:28;15.65;;;8.45;;
74213;SDS011;62576;55.694;37.494;2022-09-12T04:12:58;20.42;;;8.60;;
74213;SDS011;62576;55.694;37.494;2022-09-12T04:15:28;15.48;;;8.32;;
74213;SDS011;62576;55.694;37.494;2022-09-12T04:17:58;16.33;;;8.50;;
74213;SDS011;62576;55.694;37.494;2022-09-12T04:20:28;17.58;;;8.85;;
74213;SDS011;62576;55.694;37.494;2022-09-12T04:22:59;18.27;;;8.15;;
74213;SDS011;62576;55.694;37.494;2022-09-12T04:25:29;17.73;;;8.27;;
74213;SDS011;62576;55.694;37.494;2022-09-12T04:27:59;15.63;;;8.55;;
74213;SDS011;62576;55.694;37.494;2022-09-12T04:30:29;13.80;;;6.88;;
74213;SDS011;62576;55.694;37.494;2022-09-12T04:32:59;17.42;;;7.85;;
74213;SDS011;62576;55.694;37.494;2022-09-12T04:35:29;18.02;;;8.50;;
74213;SDS011;62576;55.694;37.494;2022-09-12T04:38:00;17.27;;;8.25;;
74213;SDS011;62576;55.694;37.494;2022-09-12T04:40:30;13.88;;;7.70;;
74213;SDS011;62576;55.694;37.494;2022-09-12T04:43:00;15.48;;;7.25;;
74213;SDS011;62576;55.694;37.494;2022-09-12T04:45:30;14.05;;;7.82;;
74213;SDS011;62576;55.694;37.494;2022-09-12T04:48:00;14.05;;;7.65;;
74213;SDS011;62576;55.694;37.494;2022-09-12T04:50:30;15.70;;;7.93;;
74213;SDS011;62576;55.694;37.494;2022-09-12T04:53:02;15.73;;;7.25;;
74213;SDS011;62576;55.694;37.494;2022-09-12T04:55:33;13.18;;;7.32;;
74213;SDS011;62576;55.694;37.494;2022-09-12T04:58:03;13.07;;;7.00;;
74213;SDS011;62576;55.694;37.494;2022-09-12T05:00:33;13.48;;;6.47;;
74213;SDS011;62576;55.694;37.494;2022-09-12T05:03:03;12.55;;;6.82;;
74213;SDS011;62576;55.694;37.494;2022-09-12T05:05:33;12.70;;;6.88;;
74213;SDS011;62576;55.694;37.494;2022-09-12T05:08:06;13.75;;;6.85;;
74213;SDS011;62576;55.694;37.494;2022-09-12T05:10:35;14.10;;;6.82;;
74213;SDS011;62576;55.694;37.494;2022-09-12T05:13:05;13.55;;;7.00;;
74213;SDS011;62576;55.694;37.494;2022-09-12T05:15:36;18.67;;;7.85;;
74213;SDS011;62576;55.694;37.494;2022-09-12T05:18:07;13.40;;;7.65;;
74213;SDS011;62576;55.694;37.494;2022-09-12T05:20:37;14.63;;;7.60;;
74213;SDS011;62576;55.694;37.494;2022-09-12T05:23:09;14.85;;;7.75;;
74213;SDS011;62576;55.694;37.494;2022-09-12T05:25:39;16.52;;;8.02;;
74213;SDS011;62576;55.694;37.494;2022-09-12T05:28:16;14.75;;;8.68;;
74213;SDS011;62576;55.694;37.494;2022-09-12T05:30:47;14.77;;;8.52;;
74213;SDS011;62576;55.694;37.494;2022-09-12T05:33:17;12.63;;;7.82;;
74213;SDS011;62576;55.694;37.494;2022-09-12T05:35:50;15.85;;;8.45;;
74213;SDS011;62576;55.694;37.494;2022-09-12T05:38:21;19.02;;;8.30;;
74213;SDS011;62576;55.694;37.494;2022-09-12T05:40:52;15.18;;;8.30;;
74213;SDS011;62576;55.694;37.494;2022-09-12T05:43:22;16.55;;;8.23;;
74213;SDS011;62576;55.694;37.494;2022-09-12T05:45:52;16.33;;;8.68;;
74213;SDS011;62576;55.694;37.494;2022-09-12T05:48:28;17.83;;;8.75;;
74213;SDS011;62576;55.694;37.494;2022-09-12T05:50:58;13.50;;;8.23;;
74213;SDS011;62576;55.694;37.494;2022-09-12T05:53:28;15.35;;;8.18;;
74213;SDS011;62576;55.694;37.494;2022-09-12T05:56:05;17.52;;;8.20;;
74213;SDS011;62576;55.694;37.494;2022-09-12T05:58:37;16.50;;;8.75;;
74213;SDS011;62576;55.694;37.494;2022-09-12T06:01:09;15.63;;;8.30;;
74213;SDS011;62576;55.694;37.494;2022-09-12T06:03:41;16.35;;;8.38;;
74213;SDS011;62576;55.694;37.494;2022-09-12T06:06:12;15.95;;;8.00;;
74213;SDS011;62576;55.694;37.494;2022-09-12T06:08:46;15.60;;;8.43;;
74213;SDS011;62576;55.694;37.494;2022-09-12T06:13:47;19.75;;;7.90;;
74213;SDS011;62576;55.694;37.494;2022-09-12T06:16:19;15.73;;;8.35;;
74213;SDS011;62576;55.694;37.494;2022-09-12T06:18:51;16.38;;;7.90;;
74213;SDS011;62576;55.694;37.494;2022-09-12T06:21:23;14.15;;;7.28;;
74213;SDS011;62576;55.694;37.494;2022-09-12T06:23:56;19.75;;;8.07;;
74213;SDS011;62576;55.694;37.494;2022-09-12T06:26:26;16.90;;;7.90;;
74213;SDS011;62576;55.694;37.494;2022-09-12T06:28:58;15.80;;;7.70;;
74213;SDS011;62576;55.694;37.494;2022-09-12T06:31:29;12.80;;;6.82;;
74213;SDS011;62576;55.694;37.494;2022-09-12T06:34:01;14.90;;;7.55;;
74213;SDS011;62576;55.694;37.494;2022-09-12T06:36:33;16.80;;;7.32;;
74213;SDS011;62576;55.694;37.494;2022-09-12T06:39:09;17.50;;;7.55;;
74213;SDS011;62576;55.694;37.494;2022-09-12T06:41:40;17.15;;;7.47;;
74213;SDS011;62576;55.694;37.494;2022-09-12T06:44:11;17.13;;;7.22;;
74213;SDS011;62576;55.694;37.494;2022-09-12T06:46:43;14.30;;;7.27;;
74213;SDS011;62576;55.694;37.494;2022-09-12T06:49:14;15.98;;;7.22;;
74213;SDS011;62576;55.694;37.494;2022-09-12T06:51:44;16.13;;;7.47;;
74213;SDS011;62576;55.694;37.494;2022-09-12T06:54:13;14.20;;;7.38;;
74213;SDS011;62576;55.694;37.494;2022-09-12T06:56:43;16.25;;;7.22;;
74213;SDS011;62576;55.694;37.494;2022-09-12T06:59:13;13.70;;;7.45;;
74213;SDS011;62576;55.694;37.494;2022-09-12T07:01:43;19.50;;;7.43;;
74213;SDS011;62576;55.694;37.494;2022-09-12T07:04:13;17.60;;;7.35;;
74213;SDS011;62576;55.694;37.494;2022-09-12T07:06:43;13.90;;;7.18;;
74213;SDS011;62576;55.694;37.494;2022-09-12T07:09:15;15.23;;;7.38;;
74213;SDS011;62576;55.694;37.494;2022-09-12T07:11:45;13.82;;;6.80;;
74213;SDS011;62576;55.694;37.494;2022-09-12T07:14:15;14.50;;;6.43;;
74213;SDS011;62576;55.694;37.494;2022-09-12T07:16:45;11.10;;;6.45;;
74213;SDS011;62576;55.694;37.494;2022-09-12T07:19:15;12.02;;;6.28;;
74213;SDS011;62576;55.694;37.494;2022-09-12T07:21:45;12.48;;;6.38;;
74213;SDS011;62576;55.694;37.494;2022-09-12T07:24:16;10.70;;;5.30;;
74213;SDS011;62576;55.694;37.494;2022-09-12T07:26:46;11.43;;;6.13;;
74213;SDS011;62576;55.694;37.494;2022-09-12T07:29:17;12.57;;;5.85;;
74213;SDS011;62576;55.694;37.494;2022-09-12T07:31:47;9.88;;;5.50;;
74213;SDS011;62576;55.694;37.494;2022-09-12T07:34:17;12.48;;;5.70;;
74213;SDS011;62576;55.694;37.494;2022-09-12T07:36:47;11.70;;;5.68;;
74213;SDS011;62576;55.694;37.494;2022-09-12T07:39:18;10.13;;;5.47;;
74213;SDS011;62576;55.694;37.494;2022-09-12T07:41:48;10.88;;;5.93;;
74213;SDS011;62576;55.694;37.494;2022-09-12T07:44:18;10.10;;;5.45;;
74213;SDS011;62576;55.694;37.494;2022-09-12T07:46:49;11.07;;;5.55;;
74213;SDS011;62576;55.694;37.494;2022-09-12T07:49:19;12.82;;;6.05;;
74213;SDS011;62576;55.694;37.494;2022-09-12T07:51:49;10.98;;;4.97;;
74213;SDS011;62576;55.694;37.494;2022-09-12T07:54:25;12.13;;;5.80;;
74213;SDS011;62576;55.694;37.494;2022-09-12T07:56:54;9.88;;;4.93;;
74213;SDS011;62576;55.694;37.494;2022-09-12T07:59:24;10.68;;;5.30;;
74213;SDS011;62576;55.694;37.494;2022-09-12T08:01:55;10.65;;;5.30;;
74213;SDS011;62576;55.694;37.494;2022-09-12T08:04:25;8.40;;;5.18;;
74213;SDS011;62576;55.694;37.494;2022-09-12T08:06:55;7.80;;;4.93;;
74213;SDS011;62576;55.694;37.494;2022-09-12T08:09:26;14.07;;;5.55;;
74213;SDS011;62576;55.694;37.494;2022-09-12T08:11:56;8.95;;;5.38;;
74213;SDS011;62576;55.694;37.494;2022-09-12T08:14:26;10.63;;;5.82;;
74213;SDS011;62576;55.694;37.494;2022-09-12T08:16:56;9.52;;;5.57;;
74213;SDS011;62576;55.694;37.494;2022-09-12T08:19:26;12.63;;;6.00;;
74213;SDS011;62576;55.694;37.494;2022-09-12T08:21:57;9.63;;;5.80;;
74213;SDS011;62576;55.694;37.494;2022-09-12T08:24:28;10.55;;;5.50;;
74213;SDS011;62576;55.694;37.494;2022-09-12T08:26:59;11.23;;;6.10;;
74213;SDS011;62576;55.694;37.494;2022-09-12T08:29:28;13.52;;;6.45;;
74213;SDS011;62576;55.694;37.494;2022-09-12T08:31:58;13.68;;;6.30;;
74213;SDS011;62576;55.694;37.494;2022-09-12T08:34:28;11.93;;;6.03;;
74213;SDS011;62576;55.694;37.494;2022-09-12T08:36:58;10.75;;;5.45;;
74213;SDS011;62576;55.694;37.494;2022-09-12T08:39:30;11.30;;;6.57;;
74213;SDS011;62576;55.694;37.494;2022-09-12T08:42:01;12.32;;;6.63;;
74213;SDS011;62576;55.694;37.494;2022-09-12T08:47:35;10.93;;;6.63;;
74213;SDS011;62576;55.694;37.494;2022-09-12T08:50:13;13.90;;;6.53;;
74213;SDS011;62576;55.694;37.494;2022-09-12T08:52:50;15.60;;;6.80;;
74213;SDS011;62576;55.694;37.494;2022-09-12T08:55:31;14.27;;;6.80;;
74213;SDS011;62576;55.694;37.494;2022-09-12T08:58:08;12.20;;;6.57;;
74213;SDS011;62576;55.694;37.494;2022-09-12T09:00:44;16.05;;;7.28;;
74213;SDS011;62576;55.694;37.494;2022-09-12T09:06:23;15.02;;;7.13;;
74213;SDS011;62576;55.694;37.494;2022-09-12T09:09:03;18.17;;;7.22;;
74213;SDS011;62576;55.694;37.494;2022-09-12T09:11:44;21.70;;;8.10;;
74213;SDS011;62576;55.694;37.494;2022-09-12T09:17:19;14.75;;;7.40;;
74213;SDS011;62576;55.694;37.494;2022-09-12T09:19:56;13.93;;;6.75;;
74213;SDS011;62576;55.694;37.494;2022-09-12T09:22:34;14.57;;;7.05;;
74213;SDS011;62576;55.694;37.494;2022-09-12T09:25:11;15.45;;;7.85;;
74213;SDS011;62576;55.694;37.494;2022-09-12T09:27:47;17.00;;;8.50;;
74213;SDS011;62576;55.694;37.494;2022-09-12T09:30:22;16.95;;;8.07;;
74213;SDS011;62576;55.694;37.494;2022-09-12T09:32:53;15.13;;;8.00;;
74213;SDS011;62576;55.694;37.494;2022-09-12T09:35:28;18.33;;;7.70;;
74213;SDS011;62576;55.694;37.494;2022-09-12T09:38:13;19.92;;;9.23;;
74213;SDS011;62576;55.694;37.494;2022-09-12T09:40:56;18.70;;;8.20;;
74213;SDS011;62576;55.694;37.494;2022-09-12T09:43:42;22.33;;;8.73;;
74213;SDS011;62576;55.694;37.494;2022-09-12T09:46:12;18.38;;;8.90;;
74213;SDS011;62576;55.694;37.494;2022-09-12T09:48:43;19.92;;;8.68;;
74213;SDS011;62576;55.694;37.494;2022-09-12T09:53:53;22.08;;;9.02;;
74213;SDS011;62576;55.694;37.494;2022-09-12T09:56:26;18.50;;;8.90;;
74213;SDS011;62576;55.694;37.494;2022-09-12T09:59:08;18.67;;;9.32;;
74213;SDS011;62576;55.694;37.494;2022-09-12T10:01:45;19.63;;;9.18;;
74213;SDS011;62576;55.694;37.494;2022-09-12T10:04:17;19.98;;;9.90;;
74213;SDS011;62576;55.694;37.494;2022-09-12T10:06:52;20.08;;;10.23;;
74213;SDS011;62576;55.694;37.494;2022-09-12T10:09:24;21.10;;;10.20;;
74213;SDS011;62576;55.694;37.494;2022-09-12T10:11:55;23.10;;;10.70;;
74213;SDS011;62576;55.694;37.494;2022-09-12T10:14:32;23.95;;;11.02;;
74213;SDS011;62576;55.694;37.494;2022-09-12T10:19:51;20.63;;;11.30;;
74213;SDS011;62576;55.694;37.494;2022-09-12T10:22:22;24.23;;;12.13;;
74213;SDS011;62576;55.694;37.494;2022-09-12T10:24:55;27.10;;;12.35;;
74213;SDS011;62576;55.694;37.494;2022-09-12T10:27:29;25.40;;;12.82;;
74213;SDS011;62576;55.694;37.494;2022-09-12T10:30:02;26.67;;;12.93;;
74213;SDS011;62576;55.694;37.494;2022-09-12T10:32:35;24.13;;;12.73;;
74213;SDS011;62576;55.694;37.494;2022-09-12T10:35:07;24.58;;;12.88;;
74213;SDS011;62576;55.694;37.494;2022-09-12T10:37:50;23.83;;;12.90;;
74213;SDS011;62576;55.694;37.494;2022-09-12T10:40:23;27.83;;;12.85;;
74213;SDS011;62576;55.694;37.494;2022-09-12T10:42:55;26.73;;;13.73;;
74213;SDS011;62576;55.694;37.494;2022-09-12T10:45:28;26.85;;;13.70;;
74213;SDS011;62576;55.694;37.494;2022-09-12T10:48:18;30.92;;;14.52;;
74213;SDS011;62576;55.694;37.494;2022-09-12T10:50:53;26.75;;;13.48;;
74213;SDS011;62576;55.694;37.494;2022-09-12T10:53:21;31.92;;;13.77;;
74213;SDS011;62576;55.694;37.494;2022-09-12T10:58:49;31.05;;;14.45;;
74213;SDS011;62576;55.694;37.494;2022-09-12T11:01:35;29.42;;;14.57;;
74213;SDS011;62576;55.694;37.494;2022-09-12T11:04:13;27.63;;;14.52;;
74213;SDS011;62576;55.694;37.494;2022-09-12T11:06:55;29.77;;;15.07;;
74213;SDS011;62576;55.694;37.494;2022-09-12T11:09:36;33.78;;;16.17;;
74213;SDS011;62576;55.694;37.494;2022-09-12T11:12:16;31.38;;;15.15;;
74213;SDS011;62576;55.694;37.494;2022-09-12T11:14:55;29.77;;;14.55;;
74213;SDS011;62576;55.694;37.494;2022-09-12T11:17:35;32.40;;;14.85;;
74213;SDS011;62576;55.694;37.494;2022-09-12T11:23:26;27.85;;;14.52;;
74213;SDS011;62576;55.694;37.494;2022-09-12T11:26:10;27.65;;;14.63;;
74213;SDS011;62576;55.694;37.494;2022-09-12T11:28:52;28.73;;;15.55;;
74213;SDS011;62576;55.694;37.494;2022-09-12T11:31:46;35.05;;;16.35;;
74213;SDS011;62576;55.694;37.494;2022-09-12T11:34:25;29.33;;;15.85;;
74213;SDS011;62576;55.694;37.494;2022-09-12T11:37:07;31.27;;;15.15;;
74213;SDS011;62576;55.694;37.494;2022-09-12T11:39:55;29.33;;;15.60;;
74213;SDS011;62576;55.694;37.494;2022-09-12T11:42:29;26.55;;;15.15;;
74213;SDS011;62576;55.694;37.494;2022-09-12T11:47:52;30.95;;;15.38;;
74213;SDS011;62576;55.694;37.494;2022-09-12T11:50:27;27.63;;;15.18;;
74213;SDS011;62576;55.694;37.494;2022-09-12T11:53:01;32.10;;;16.10;;
74213;SDS011;62576;55.694;37.494;2022-09-12T11:55:43;29.95;;;15.65;;
74213;SDS011;62576;55.694;37.494;2022-09-12T11:58:18;29.13;;;15.40;;
74213;SDS011;62576;55.694;37.494;2022-09-12T12:00:54;28.65;;;15.10;;
74213;SDS011;62576;55.694;37.494;2022-09-12T12:03:31;28.27;;;15.25;;
74213;SDS011;62576;55.694;37.494;2022-09-12T12:06:09;31.90;;;14.93;;
74213;SDS011;62576;55.694;37.494;2022-09-12T12:08:43;28.77;;;15.32;;
74213;SDS011;62576;55.694;37.494;2022-09-12T12:11:14;28.27;;;13.02;;
74213;SDS011;62576;55.694;37.494;2022-09-12T12:13:53;28.13;;;14.68;;
74213;SDS011;62576;55.694;37.494;2022-09-12T12:18:56;28.35;;;14.18;;
74213;SDS011;62576;55.694;37.494;2022-09-12T12:24:15;29.95;;;14.63;;
74213;SDS011;62576;55.694;37.494;2022-09-12T12:26:56;36.42;;;14.82;;
74213;SDS011;62576;55.694;37.494;2022-09-12T12:40:53;30.17;;;14.38;;
74213;SDS011;62576;55.694;37.494;2022-09-12T12:44:17;30.23;;;14.52;;
74213;SDS011;62576;55.694;37.494;2022-09-12T12:47:15;33.65;;;14.73;;
74213;SDS011;62576;55.694;37.494;2022-09-12T12:49:49;38.00;;;15.32;;
74213;SDS011;62576;55.694;37.494;2022-09-12T12:52:21;29.45;;;14.52;;
74213;SDS011;62576;55.694;37.494;2022-09-12T12:54:51;31.15;;;13.88;;
74213;SDS011;62576;55.694;37.494;2022-09-12T12:57:31;29.50;;;13.87;;
74213;SDS011;62576;55.694;37.494;2022-09-12T13:00:30;27.35;;;14.30;;
74213;SDS011;62576;55.694;37.494;2022-09-12T13:03:08;29.92;;;14.18;;
74213;SDS011;62576;55.694;37.494;2022-09-12T13:05:49;31.67;;;13.55;;
74213;SDS011;62576;55.694;37.494;2022-09-12T13:08:26;27.85;;;13.23;;
74213;SDS011;62576;55.694;37.494;2022-09-12T13:10:59;32.65;;;13.27;;
74213;SDS011;62576;55.694;37.494;2022-09-12T13:13:33;32.88;;;13.05;;
74213;SDS011;62576;55.694;37.494;2022-09-12T13:16:07;28.60;;;13.02;;
74213;SDS011;62576;55.694;37.494;2022-09-12T13:18:40;25.13;;;12.00;;
74213;SDS011;62576;55.694;37.494;2022-09-12T13:21:13;25.67;;;12.23;;
74213;SDS011;62576;55.694;37.494;2022-09-12T13:23:57;23.42;;;11.77;;
74213;SDS011;62576;55.694;37.494;2022-09-12T13:26:31;25.65;;;11.73;;
74213;SDS011;62576;55.694;37.494;2022-09-12T13:29:11;23.33;;;11.23;;
74213;SDS011;62576;55.694;37.494;2022-09-12T13:31:44;25.70;;;11.15;;
74213;SDS011;62576;55.694;37.494;2022-09-12T13:34:18;26.73;;;10.73;;
74213;SDS011;62576;55.694;37.494;2022-09-12T13:39:46;25.02;;;10.95;;
74213;SDS011;62576;55.694;37.494;2022-09-12T13:45:12;21.27;;;10.02;;
74213;SDS011;62576;55.694;37.494;2022-09-12T13:47:46;19.80;;;9.35;;
74213;SDS011;62576;55.694;37.494;2022-09-12T13:50:20;21.52;;;9.90;;
74213;SDS011;62576;55.694;37.494;2022-09-12T13:52:53;19.85;;;9.15;;
74213;SDS011;62576;55.694;37.494;2022-09-12T13:55:29;17.85;;;8.88;;
74213;SDS011;62576;55.694;37.494;2022-09-12T13:58:01;21.17;;;9.27;;
74213;SDS011;62576;55.694;37.494;2022-09-12T14:00:34;16.02;;;8.75;;
74213;SDS011;62576;55.694;37.494;2022-09-12T14:03:13;19.88;;;8.85;;
74213;SDS011;62576;55.694;37.494;2022-09-12T14:06:12;17.60;;;8.85;;
74213;SDS011;62576;55.694;37.494;2022-09-12T14:08:44;20.05;;;8.63;;
74213;SDS011;62576;55.694;37.494;2022-09-12T14:11:19;19.45;;;8.85;;
74213;SDS011;62576;55.694;37.494;2022-09-12T14:13:54;21.50;;;8.70;;
74213;SDS011;62576;55.694;37.494;2022-09-12T14:16:38;18.70;;;8.55;;
74213;SDS011;62576;55.694;37.494;2022-09-12T14:19:09;15.23;;;7.97;;
74213;SDS011;62576;55.694;37.494;2022-09-12T14:21:39;16.13;;;7.63;;
74213;SDS011;62576;55.694;37.494;2022-09-12T14:24:09;19.55;;;8.18;;
74213;SDS011;62576;55.694;37.494;2022-09-12T14:26:41;17.52;;;8.25;;
74213;SDS011;62576;55.694;37.494;2022-09-12T14:29:13;16.08;;;7.40;;
74213;SDS011;62576;55.694;37.494;2022-09-12T14:31:47;13.90;;;7.20;;
74213;SDS011;62576;55.694;37.494;2022-09-12T14:34:29;14.93;;;6.85;;
74213;SDS011;62576;55.694;37.494;2022-09-12T14:37:01;16.13;;;7.25;;
74213;SDS011;62576;55.694;37.494;2022-09-12T14:39:36;13.38;;;7.35;;
74213;SDS011;62576;55.694;37.494;2022-09-12T14:42:13;13.82;;;7.10;;
74213;SDS011;62576;55.694;37.494;2022-09-12T14:44:50;14.38;;;7.80;;
74213;SDS011;62576;55.694;37.494;2022-09-12T14:47:25;17.42;;;7.75;;
74213;SDS011;62576;55.694;37.494;2022-09-12T14:52:27;16.55;;;6.30;;
74213;SDS011;62576;55.694;37.494;2022-09-12T14:55:00;15.90;;;6.32;;
74213;SDS011;62576;55.694;37.494;2022-09-12T14:57:34;16.52;;;7.03;;
74213;SDS011;62576;55.694;37.494;2022-09-12T15:00:14;14.05;;;6.75;;
74213;SDS011;62576;55.694;37.494;2022-09-12T15:02:51;14.18;;;6.05;;
74213;SDS011;62576;55.694;37.494;2022-09-12T15:05:23;13.68;;;6.28;;
74213;SDS011;62576;55.694;37.494;2022-09-12T15:07:56;13.65;;;6.47;;
74213;SDS011;62576;55.694;37.494;2022-09-12T15:10:28;13.50;;;5.78;;
74213;SDS011;62576;55.694;37.494;2022-09-12T15:13:08;11.00;;;5.68;;
74213;SDS011;62576;55.694;37.494;2022-09-12T15:15:43;11.88;;;6.30;;
74213;SDS011;62576;55.694;37.494;2022-09-12T15:18:16;15.07;;;5.82;;
74213;SDS011;62576;55.694;37.494;2022-09-12T15:20:47;12.02;;;5.72;;
74213;SDS011;62576;55.694;37.494;2022-09-12T15:23:24;14.27;;;5.97;;
74213;SDS011;62576;55.694;37.494;2022-09-12T15:26:01;10.45;;;5.68;;
74213;SDS011;62576;55.694;37.494;2022-09-12T15:28:31;10.90;;;4.97;;
74213;SDS011;62576;55.694;37.494;2022-09-12T15:31:04;14.00;;;5.70;;
74213;SDS011;62576;55.694;37.494;2022-09-12T15:33:38;13.18;;;5.90;;
74213;SDS011;62576;55.694;37.494;2022-09-12T15:36:11;13.00;;;5.85;;
74213;SDS011;62576;55.694;37.494;2022-09-12T15:38:49;10.98;;;5.32;;
74213;SDS011;62576;55.694;37.494;2022-09-12T15:41:20;14.65;;;5.70;;
74213;SDS011;62576;55.694;37.494;2022-09-12T15:43:53;12.32;;;5.30;;
74213;SDS011;62576;55.694;37.494;2022-09-12T15:46:23;15.55;;;5.30;;
74213;SDS011;62576;55.694;37.494;2022-09-12T15:48:55;13.93;;;5.90;;
74213;SDS011;62576;55.694;37.494;2022-09-12T15:51:26;11.13;;;5.07;;
74213;SDS011;62576;55.694;37.494;2022-09-12T15:53:53;11.38;;;5.10;;
74213;SDS011;62576;55.694;37.494;2022-09-12T15:56:24;10.50;;;5.05;;
74213;SDS011;62576;55.694;37.494;2022-09-12T15:58:54;11.27;;;4.93;;
74213;SDS011;62576;55.694;37.494;2022-09-12T16:01:24;10.10;;;4.85;;